Latest Coastal Weather Observations for Wyndham Airport

IDW60701

Issued at 9:41 am WST Wednesday 1 June 2016 (issued every 10 minutes, with the page automatically refreshed every 10 minutes)

About coastal observations | Map of coastal stations | Coastal observations for WA | Marine services | Other Formats
Station Details ID: 001006 Name: WYNDHAM AERO Lat: -15.51 Lon: 128.15 Height: 3.8 m
Data from the previous 72 hours. | See also: Recent months at Wyndham Airport
Date/Time
WST
Temp

°C
Wind Pressure Rain
since 9am
mm
Weather Cloud Vis
km
Sea
Height
m
Swell
Dir
 
Speed
knots
Gust
knots
hPa Trend Height
m
Period
s
Dir
01/09:30am 32.3 ENE 9 13 1015.0 - 0.0 - - - - - - -
01/09:00am 32.1 E 10 14 1015.2 - 0.0 - - - - - - -
01/08:30am 31.6 ESE 10 13 1015.1 - 0.0 - - - - - - -
01/08:00am 30.8 ESE 9 12 1015.1 - 0.0 - - - - - - -
01/07:30am 29.1 SE 7 8 1015.2 - 0.0 - - - - - - -
01/07:00am 28.9 ESE 4 5 1015.1 - 0.0 - - - - - - -
01/06:30am 28.0 CALM 0 0 1014.8 - 0.0 - - - - - - -
01/06:00am 26.6 CALM 0 0 1014.3 - 0.0 - - - - - - -
01/05:30am 26.5 NNE 3 4 1014.0 - 0.0 - - - - - - -
01/05:00am 27.2 SSW 1 3 1013.9 - 0.0 - - - - - - -
01/04:30am 26.7 NE 2 3 1013.3 - 0.0 - - - - - - -
01/04:00am 26.7 ESE 3 4 1013.3 - 0.0 - - - - - - -
01/03:30am 26.2 ESE 5 6 1013.2 - 0.0 - - - - - - -
01/03:00am 26.5 SE 7 8 1013.1 - 0.0 - - - - - - -
01/02:30am 26.7 SE 5 6 1013.0 - 0.0 - - - - - - -
01/02:00am 27.7 ENE 6 7 1013.0 - 0.0 - - - - - - -
01/01:30am 27.0 CALM 0 0 1013.1 - 0.0 - - - - - - -
01/01:00am 26.9 CALM 0 0 1013.5 - 0.0 - - - - - - -
01/12:30am 26.9 CALM 0 0 1013.6 - 0.0 - - - - - - -
01/12:00am 26.8 ENE 3 5 1013.7 - 0.0 - - - - - - -
 
Date/Time
WST
Temp

°C
Wind Pressure Rain
since 9am
mm
Weather Cloud Vis
km
Sea
Height
m
Swell
Dir
 
Speed
knots
Gust
knots
hPa Trend Height
m
Period
s
Dir
31/11:30pm 27.1 ESE 2 4 1013.8 - 0.0 - - - - - - -
31/11:00pm 27.4 E 6 8 1013.6 - 0.0 - - - - - - -
31/10:30pm 27.1 ESE 7 8 1013.7 - 0.0 - - - - - - -
31/10:00pm 27.5 E 5 6 1013.7 - 0.0 - - - - - - -
31/09:30pm 28.0 ENE 1 4 1013.8 - 0.0 - - - - - - -
31/09:00pm 28.7 SE 5 7 1013.6 - 0.0 - - - - - - -
31/08:30pm 29.3 SE 5 6 1013.6 - 0.0 - - - - - - -
31/08:00pm 30.3 ENE 3 5 1013.4 - 0.0 - - - - - - -
31/07:30pm 30.1 ENE 3 6 1013.1 - 0.0 - - - - - - -
31/07:00pm 30.2 N 6 9 1012.8 - 0.0 - - - - - - -
31/06:30pm 30.7 N 8 11 1012.2 - 0.0 - - - - - - -
31/06:00pm 31.3 N 9 12 1011.7 - 0.0 - - - - - - -
31/05:30pm 31.7 N 11 15 1011.3 - 0.0 - - - - - - -
31/05:00pm 32.5 N 9 11 1011.0 - 0.0 - - - - - - -
31/04:30pm 33.6 N 9 13 1010.8 - 0.0 - - - - - - -
31/04:00pm 35.2 NNE 6 9 1010.4 - 0.0 - - - - - - -
31/03:30pm 35.5 NE 5 8 1010.2 - 0.0 - - - - - - -
31/03:00pm 36.0 NNW 2 6 1010.1 - 0.0 - - - - - - -
31/02:30pm 35.3 SSW 5 6 1010.2 - 0.0 - - - - - - -
31/02:00pm 36.4 WNW 7 11 1010.1 - 0.0 - - - - - - -
31/01:30pm 36.3 W 8 13 1010.2 - 0.0 - - - - - - -
31/01:00pm 35.8 NNW 6 10 1010.5 - 0.0 - - - - - - -
31/12:30pm 36.0 NNE 7 12 1011.0 - 0.0 - - - - - - -
31/12:00pm 34.9 NNE 3 7 1011.6 - 0.0 - - - - - - -
31/11:30am 34.5 SSE 5 7 1012.3 - 0.0 - - - - - - -
31/11:00am 34.1 SSW 4 6 1012.8 - 0.0 - - - - - - -
31/10:30am 34.0 NNW 2 6 1013.4 - 0.0 - - - - - - -
31/10:00am 32.5 SW 4 7 1013.9 - 0.0 - - - - - - -
31/09:30am 31.8 SW 5 8 1014.3 - 0.0 - - - - - - -
31/09:00am 31.0 SW 3 6 1014.6 - 0.0 - - - - - - -
31/08:30am 29.9 SW 2 6 1014.7 - 0.0 - - - - - - -
31/08:00am 29.2 W 3 5 1014.9 - 0.0 - - - - - - -
31/07:30am 28.2 WSW 3 4 1014.7 - 0.0 - - - - - - -
31/07:00am 27.2 CALM 0 0 1014.4 - 0.0 - - - - - - -
31/06:30am 25.3 NE 4 5 1014.4 - 0.0 - - - - - - -
31/06:00am 24.5 CALM 0 0 1014.2 - 0.0 - - - - - - -
31/05:30am 24.5 CALM 0 0 1013.7 - 0.0 - - - - - - -
31/05:00am 24.8 CALM 0 0 1013.3 - 0.0 - - - - - - -
31/04:30am 24.8 CALM 0 0 1012.9 - 0.0 - - - - - - -
31/04:00am 24.9 CALM 0 0 1012.7 - 0.0 - - - - - - -
31/03:30am 25.0 CALM 0 0 1012.7 - 0.0 - - - - - - -
31/03:00am 25.2 NNW 1 3 1012.6 - 0.0 - - - - - - -
31/02:30am 24.9 NW 2 4 1012.6 - 0.0 - - - - - - -
31/02:00am 25.0 NW 3 4 1012.7 - 0.0 - - - - - - -
31/01:30am 24.8 NNW 3 4 1012.6 - 0.0 - - - - - - -
31/01:00am 25.6 W 1 4 1012.9 - 0.0 - - - - - - -
31/12:30am 25.6 CALM 0 0 1013.0 - 0.0 - - - - - - -
31/12:00am 25.2 E 4 5 1013.0 - 0.0 - - - - - - -
 
Date/Time
WST
Temp

°C
Wind Pressure Rain
since 9am
mm
Weather Cloud Vis
km
Sea
Height
m
Swell
Dir
 
Speed
knots
Gust
knots
hPa Trend Height
m
Period
s
Dir
30/11:30pm 25.1 ESE 4 5 1012.9 - 0.0 - - - - - - -
30/11:00pm 26.1 ESE 3 4 1012.9 - 0.0 - - - - - - -
30/10:30pm 26.3 ENE 5 6 1013.1 - 0.0 - - - - - - -
30/10:00pm 26.4 CALM 0 0 1013.1 - 0.0 - - - - - - -
30/09:30pm 27.4 CALM 0 0 1013.2 - 0.0 - - - - - - -
30/09:00pm 28.1 CALM 0 0 1013.2 - 0.0 - - - - - - -
30/08:30pm 29.1 NW 6 8 1013.2 - 0.0 - - - - - - -
30/08:00pm 28.9 CALM 0 3 1013.1 - 0.0 - - - - - - -
30/07:30pm 29.3 NNE 8 10 1012.7 - 0.0 - - - - - - -
30/07:00pm 29.3 N 11 15 1012.2 - 0.0 - - - - - - -
30/06:30pm 29.5 N 11 15 1011.9 - 0.0 - - - - - - -
30/06:00pm 30.0 NNE 11 14 1011.7 - 0.0 - - - - - - -
30/05:30pm 30.6 N 12 18 1011.5 - 0.0 - - - - - - -
30/05:00pm 31.4 N 13 17 1011.1 - 0.0 - - - - - - -
30/04:30pm 32.7 N 11 14 1010.6 - 0.0 - - - - - - -
30/04:00pm 33.7 N 10 13 1010.2 - 0.0 - - - - - - -
30/03:30pm 34.0 NNW 12 16 1009.8 - 0.0 - - - - - - -
30/03:00pm 34.5 NNW 11 15 1009.5 - 0.0 - - - - - - -
30/02:30pm 34.9 NNW 9 14 1009.6 - 0.0 - - - - - - -
30/02:00pm 35.7 NNW 8 12 1009.7 - 0.0 - - - - - - -
30/01:30pm 35.6 N 8 12 1010.0 - 0.0 - - - - - - -
30/01:00pm 35.1 NW 7 12 1010.1 - 0.0 - - - - - - -
30/12:30pm 34.6 N 8 14 1010.6 - 0.0 - - - - - - -
30/12:00pm 33.8 NNW 8 13 1011.1 - 0.0 - - - - - - -
30/11:30am 34.5 NW 5 8 1011.6 - 0.0 - - - - - - -
30/11:00am 34.2 WNW 6 13 1012.0 - 0.0 - - - - - - -
30/10:30am 32.9 NW 6 9 1012.5 - 0.0 - - - - - - -
30/10:00am 32.7 WNW 7 11 1012.7 - 0.0 - - - - - - -
30/09:30am 31.5 NW 5 8 1013.2 - 0.0 - - - - - - -
30/09:00am 30.8 WSW 4 6 1013.5 - 0.0 - - - - - - -
30/08:30am 30.0 W 3 5 1013.7 - 0.0 - - - - - - -
30/08:00am 29.4 WNW 2 4 1013.7 - 0.0 - - - - - - -
30/07:30am 28.0 E 4 5 1013.5 - 0.0 - - - - - - -
30/07:00am 26.9 E 3 4 1013.4 - 0.0 - - - - - - -
30/06:30am 25.8 E 5 7 1013.1 - 0.0 - - - - - - -
30/06:00am 25.0 SE 6 8 1012.7 - 0.0 - - - - - - -
30/05:30am 24.3 ESE 6 7 1012.4 - 0.0 - - - - - - -
30/05:00am 24.4 ENE 5 6 1012.0 - 0.0 - - - - - - -
30/04:30am 24.7 E 5 6 1011.8 - 0.0 - - - - - - -
30/04:00am 25.1 E 6 7 1011.7 - 0.0 - - - - - - -
30/03:30am 24.8 E 7 7 1011.6 - 0.0 - - - - - - -
30/03:00am 25.0 ENE 4 5 1011.2 - 0.0 - - - - - - -
30/02:30am 25.2 E 5 5 1011.3 - 0.0 - - - - - - -
30/02:00am 25.3 E 5 6 1011.3 - 0.0 - - - - - - -
30/01:30am 25.2 E 5 6 1011.3 - 0.0 - - - - - - -
30/01:00am 25.5 ENE 6 8 1011.5 - 0.0 - - - - - - -
30/12:30am 25.4 ESE 6 7 1011.5 - 0.0 - - - - - - -
30/12:00am 25.9 ENE 4 6 1011.6 - 0.0 - - - - - - -
 
Date/Time
WST
Temp

°C
Wind Pressure Rain
since 9am
mm
Weather Cloud Vis
km
Sea
Height
m
Swell
Dir
 
Speed
knots
Gust
knots
hPa Trend Height
m
Period
s
Dir
29/11:30pm 26.4 E 4 5 1011.6 - 0.0 - - - - - - -
29/11:00pm 26.8 ESE 4 4 1011.6 - 0.0 - - - - - - -
29/10:30pm 29.0 WSW 4 5 1011.7 - 0.0 - - - - - - -
29/10:00pm 29.9 N 1 5 1011.8 - 0.0 - - - - - - -
29/09:30pm 30.7 N 3 7 1012.1 - 0.0 - - - - - - -
29/09:00pm 29.7 S 2 5 1012.2 - 0.0 - - - - - - -
29/08:30pm 31.0 N 10 14 1011.9 - 0.0 - - - - - - -
29/08:00pm 30.9 N 10 12 1011.8 - 0.0 - - - - - - -
29/07:30pm 31.0 N 9 13 1011.6 - 0.0 - - - - - - -
29/07:00pm 31.6 N 10 15 1011.5 - 0.0 - - - - - - -
29/06:30pm 31.7 N 10 14 1011.1 - 0.0 - - - - - - -
29/06:00pm 32.1 N 11 15 1010.8 - 0.0 - - - - - - -
29/05:30pm 32.3 N 9 12 1010.6 - 0.0 - - - - - - -
29/05:00pm 33.2 NNW 6 9 1010.1 - 0.0 - - - - - - -
29/04:30pm 34.7 N 4 6 1009.6 - 0.0 - - - - - - -
29/04:00pm 35.7 NNE 5 7 1009.3 - 0.0 - - - - - - -
29/03:30pm 35.9 SSW 3 6 1009.1 - 0.0 - - - - - - -
29/03:00pm 36.3 NNE 3 8 1009.1 - 0.0 - - - - - - -
29/02:30pm 36.6 WSW 3 6 1009.1 - 0.0 - - - - - - -
29/02:00pm 36.6 W 4 10 1009.2 - 0.0 - - - - - - -
29/01:30pm 35.5 NW 6 9 1009.5 - 0.0 - - - - - - -
29/01:00pm 35.6 NNW 5 8 1009.9 - 0.0 - - - - - - -
29/12:30pm 35.7 NW 4 8 1010.4 - 0.0 - - - - - - -
29/12:00pm 34.5 N 6 7 1010.8 - 0.0 - - - - - - -
29/11:30am 34.5 CALM 0 3 1011.2 - 0.0 - - - - - - -
29/11:00am 34.4 SW 6 8 1011.8 - 0.0 - - - - - - -
29/10:30am 34.6 E 4 7 1012.2 - 0.0 - - - - - - -
29/10:00am 33.1 SE 3 6 1012.6 - 0.0 - - - - - - -

Other Formats:

Comma delimited format used in spreadsheet applications
http://www.bom.gov.au/fwo/IDW60701/IDW60701.95214.axf

JavaScript Object Notation format (JSON) in row-major order
http://www.bom.gov.au/fwo/IDW60701/IDW60701.95214.json